createdAt,value
2018-07-28T00:00:10.113Z,8.47
2018-07-28T00:02:39.619Z,7.50
2018-07-28T00:05:09.206Z,7.70
2018-07-28T00:07:38.551Z,8.57
2018-07-28T00:10:10.490Z,8.77
2018-07-28T00:12:39.860Z,9.03
2018-07-28T00:15:10.368Z,7.60
2018-07-28T00:17:40.103Z,8.57
2018-07-28T00:20:11.233Z,8.10
2018-07-28T00:22:40.283Z,8.73
2018-07-28T00:25:11.291Z,8.33
2018-07-28T00:27:41.207Z,8.27
2018-07-28T00:30:12.110Z,8.10
2018-07-28T00:32:40.916Z,7.87
2018-07-28T00:35:09.859Z,8.60
2018-07-28T00:37:39.143Z,8.70
2018-07-28T00:40:08.915Z,7.90
2018-07-28T00:42:38.224Z,8.33
2018-07-28T00:45:07.943Z,8.20
2018-07-28T00:47:36.895Z,8.90
2018-07-28T00:50:07.808Z,9.10
2018-07-28T00:52:36.905Z,8.00
2018-07-28T00:55:06.827Z,8.90
2018-07-28T00:57:35.985Z,8.77
2018-07-28T01:00:07.303Z,9.57
2018-07-28T01:02:36.546Z,8.90
2018-07-28T01:05:06.627Z,8.33
2018-07-28T01:07:36.141Z,8.17
2018-07-28T01:10:06.514Z,11.40
2018-07-28T01:12:35.970Z,10.37
2018-07-28T01:15:09.127Z,8.80
2018-07-28T01:17:38.353Z,8.73
2018-07-28T01:20:08.955Z,9.63
2018-07-28T01:22:38.500Z,9.43
2018-07-28T01:25:09.067Z,8.90
2018-07-28T01:27:38.935Z,9.10
2018-07-28T01:30:11.971Z,10.40
2018-07-28T01:32:40.866Z,8.90
2018-07-28T01:35:09.758Z,9.33
2018-07-28T01:37:38.677Z,10.10
2018-07-28T01:40:08.352Z,9.53
2018-07-28T01:42:37.138Z,9.10
2018-07-28T01:45:07.738Z,9.57
2018-07-28T01:47:36.603Z,9.40
2018-07-28T01:50:07.260Z,9.60
2018-07-28T01:52:36.106Z,9.53
2018-07-28T01:55:05.523Z,9.90
2018-07-28T01:57:34.645Z,8.90
2018-07-28T02:00:04.836Z,9.97
2018-07-28T02:02:33.715Z,8.63
2018-07-28T02:05:04.048Z,9.20
2018-07-28T02:07:32.911Z,9.23
2018-07-28T02:10:01.757Z,9.40
2018-07-28T02:12:30.631Z,9.40
2018-07-28T02:14:59.535Z,9.57
2018-07-28T02:17:28.368Z,9.00
2018-07-28T02:19:57.326Z,8.60
2018-07-28T02:22:26.190Z,10.07
2018-07-28T02:24:54.893Z,9.73
2018-07-28T02:27:23.787Z,9.67
2018-07-28T02:29:52.674Z,8.10
2018-07-28T02:32:21.574Z,8.60
2018-07-28T02:34:50.448Z,9.90
2018-07-28T02:37:19.297Z,9.80
2018-07-28T02:39:48.248Z,9.23
2018-07-28T02:42:17.094Z,10.00
2018-07-28T02:44:45.979Z,10.83
2018-07-28T02:47:14.678Z,9.80
2018-07-28T02:49:43.583Z,10.20
2018-07-28T02:52:12.483Z,9.63
2018-07-28T02:54:41.328Z,9.97
2018-07-28T02:57:10.207Z,9.90
2018-07-28T02:59:39.129Z,9.90
2018-07-28T03:02:08.040Z,9.90
2018-07-28T03:04:36.915Z,8.10
2018-07-28T03:07:06.613Z,9.10
2018-07-28T03:09:35.581Z,8.87
2018-07-28T03:12:04.571Z,9.70
2018-07-28T03:14:33.293Z,8.67
2018-07-28T03:17:02.256Z,9.73
2018-07-28T03:19:31.086Z,9.43
2018-07-28T03:21:59.794Z,9.57
2018-07-28T03:24:28.704Z,9.40
2018-07-28T03:26:57.584Z,8.67
2018-07-28T03:29:26.624Z,9.83
2018-07-28T03:31:55.409Z,9.23
2018-07-28T03:34:24.266Z,9.50
2018-07-28T03:36:53.122Z,9.67
2018-07-28T03:39:21.983Z,9.80
2018-07-28T03:41:50.738Z,9.97
2018-07-28T03:44:19.707Z,9.30
2018-07-28T03:46:48.563Z,9.93
2018-07-28T03:49:17.494Z,8.63
2018-07-28T03:51:46.360Z,9.40
2018-07-28T03:54:15.232Z,9.07
2018-07-28T03:56:44.095Z,9.87
2018-07-28T03:59:13.059Z,9.10
2018-07-28T04:01:41.965Z,9.40
2018-07-28T04:04:10.880Z,8.63
2018-07-28T04:06:39.715Z,10.13
2018-07-28T04:09:09.567Z,9.80
2018-07-28T04:11:38.602Z,9.90
2018-07-28T04:14:07.474Z,8.70
2018-07-28T04:16:36.311Z,8.87
2018-07-28T04:19:05.712Z,10.83
2018-07-28T04:21:34.582Z,8.70
2018-07-28T04:24:03.487Z,8.83
2018-07-28T04:26:32.335Z,9.50
2018-07-28T04:29:01.241Z,9.60
2018-07-28T04:31:30.143Z,9.03
2018-07-28T04:33:59.019Z,9.73
2018-07-28T04:36:27.900Z,9.40
2018-07-28T04:38:56.804Z,9.10
2018-07-28T04:41:25.667Z,10.20
2018-07-28T04:43:54.464Z,11.43
2018-07-28T04:46:23.307Z,10.37
2018-07-28T04:48:53.782Z,10.77
2018-07-28T04:51:22.560Z,9.60
2018-07-28T04:53:51.358Z,10.70
2018-07-28T04:56:21.385Z,10.70
2018-07-28T04:58:50.310Z,10.63
2018-07-28T05:01:19.894Z,9.70
2018-07-28T05:03:48.735Z,10.30
2018-07-28T05:06:17.591Z,10.70
2018-07-28T05:08:47.276Z,10.40
2018-07-28T05:11:16.183Z,10.40
2018-07-28T05:13:46.036Z,11.03
2018-07-28T05:16:22.444Z,10.50
2018-07-28T05:18:51.720Z,10.27
2018-07-28T05:21:20.679Z,11.87
2018-07-28T05:23:49.536Z,11.80
2018-07-28T05:26:18.779Z,11.13
2018-07-28T05:28:47.614Z,11.67
2018-07-28T05:31:19.721Z,11.23
2018-07-28T05:33:48.971Z,10.77
2018-07-28T05:36:17.722Z,10.80
2018-07-28T05:38:49.759Z,10.40
2018-07-28T05:41:18.882Z,10.77
2018-07-28T05:43:47.654Z,11.67
2018-07-28T05:46:16.519Z,11.37
2018-07-28T05:48:45.438Z,12.20
2018-07-28T05:51:14.732Z,12.03
2018-07-28T05:53:43.643Z,11.63
2018-07-28T05:56:12.504Z,13.00
2018-07-28T05:58:41.932Z,10.60
2018-07-28T06:01:11.622Z,11.10
2018-07-28T06:03:41.595Z,11.50
2018-07-28T06:06:10.635Z,11.63
2018-07-28T06:08:39.718Z,11.50
2018-07-28T06:11:08.897Z,10.47
2018-07-28T06:13:37.803Z,12.53
2018-07-28T06:16:06.709Z,11.30
2018-07-28T06:18:35.619Z,11.30
2018-07-28T06:21:04.551Z,12.07
2018-07-28T06:23:33.346Z,11.57
2018-07-28T06:26:02.237Z,12.10
2018-07-28T06:28:30.946Z,12.00
2018-07-28T06:30:59.827Z,12.00
2018-07-28T06:33:28.771Z,12.27
2018-07-28T06:35:57.635Z,10.50
2018-07-28T06:38:26.499Z,11.57
2018-07-28T06:40:55.528Z,12.27
2018-07-28T06:43:24.397Z,12.60
2018-07-28T06:45:53.359Z,11.53
2018-07-28T06:48:22.264Z,12.40
2018-07-28T06:50:51.175Z,11.47
2018-07-28T06:53:20.275Z,12.93
2018-07-28T06:55:49.184Z,11.40
2018-07-28T06:58:18.351Z,12.83
2018-07-28T07:00:48.266Z,11.60
2018-07-28T07:03:17.143Z,12.37
2018-07-28T07:05:46.024Z,11.40
2018-07-28T07:08:14.745Z,11.80
2018-07-28T07:10:43.688Z,10.30
2018-07-28T07:13:12.523Z,11.47
2018-07-28T07:15:41.818Z,10.37
2018-07-28T07:18:10.828Z,10.47
2018-07-28T07:20:39.832Z,9.43
2018-07-28T07:23:08.696Z,9.30
2018-07-28T07:25:37.539Z,8.70
2018-07-28T07:28:07.141Z,10.40
2018-07-28T07:30:35.994Z,9.83
2018-07-28T07:33:04.855Z,9.50
2018-07-28T07:35:33.712Z,11.70
2018-07-28T07:38:02.554Z,11.20
2018-07-28T07:40:31.475Z,10.70
2018-07-28T07:43:00.352Z,9.90
2018-07-28T07:45:29.170Z,11.77
2018-07-28T07:47:57.971Z,11.80
2018-07-28T07:50:26.888Z,11.30
2018-07-28T07:52:55.726Z,11.47
2018-07-28T07:55:24.903Z,12.10
2018-07-28T07:57:53.835Z,10.87
2018-07-28T08:00:22.817Z,10.73
2018-07-28T08:02:51.678Z,11.27
2018-07-28T08:05:20.559Z,10.90
2018-07-28T08:07:50.028Z,10.50
2018-07-28T08:10:21.006Z,11.20
2018-07-28T08:12:49.853Z,12.17
2018-07-28T08:15:18.702Z,11.80
2018-07-28T08:17:47.498Z,12.00
2018-07-28T08:20:16.691Z,12.70
2018-07-28T08:22:45.559Z,12.83
2018-07-28T08:25:14.407Z,11.23
2018-07-28T08:27:43.258Z,11.77
2018-07-28T08:30:12.259Z,11.80
2018-07-28T08:32:41.098Z,11.87
2018-07-28T08:35:09.955Z,10.87
2018-07-28T08:37:38.880Z,11.97
2018-07-28T08:40:07.913Z,11.63
2018-07-28T08:42:36.718Z,11.50
2018-07-28T08:45:06.314Z,12.10
2018-07-28T08:47:35.195Z,11.70
2018-07-28T08:50:04.807Z,12.30
2018-07-28T08:52:33.814Z,11.13
2018-07-28T08:55:03.008Z,10.90
2018-07-28T08:57:31.926Z,12.00
2018-07-28T09:00:00.731Z,11.33
2018-07-28T09:02:29.691Z,11.67
2018-07-28T09:04:58.564Z,11.10
2018-07-28T09:07:27.763Z,11.93
2018-07-28T09:09:56.742Z,11.00
2018-07-28T09:12:26.092Z,11.30
2018-07-28T09:14:56.161Z,11.10
2018-07-28T09:17:25.288Z,10.83
2018-07-28T09:19:54.248Z,11.07
2018-07-28T09:22:23.175Z,11.57
2018-07-28T09:24:52.207Z,13.80
2018-07-28T09:27:21.308Z,11.07
2018-07-28T09:29:50.548Z,11.60
2018-07-28T09:32:19.492Z,10.80
2018-07-28T09:34:48.371Z,10.70
2018-07-28T09:37:17.272Z,10.60
2018-07-28T09:39:46.195Z,11.70
2018-07-28T09:42:15.151Z,11.80
2018-07-28T09:44:44.007Z,10.93
2018-07-28T09:47:13.003Z,9.77
2018-07-28T09:49:41.983Z,13.70
2018-07-28T09:52:10.864Z,11.60
2018-07-28T09:54:39.762Z,11.57
2018-07-28T09:57:08.637Z,12.30
2018-07-28T09:59:37.664Z,11.97
2018-07-28T10:02:07.260Z,12.40
2018-07-28T10:04:36.117Z,11.30
2018-07-28T10:07:06.236Z,11.83
2018-07-28T10:09:35.130Z,10.93
2018-07-28T10:12:04.041Z,12.70
2018-07-28T10:14:32.911Z,11.30
2018-07-28T10:17:01.769Z,11.23
2018-07-28T10:19:30.737Z,12.40
2018-07-28T10:22:00.487Z,11.10
2018-07-28T10:24:29.433Z,12.20
2018-07-28T10:26:58.338Z,11.70
2018-07-28T10:29:27.179Z,11.30
2018-07-28T10:31:56.291Z,11.50
2018-07-28T10:34:25.153Z,13.10
2018-07-28T10:36:53.995Z,11.60
2018-07-28T10:39:22.966Z,11.63
2018-07-28T10:41:51.828Z,12.87
2018-07-28T10:44:20.730Z,10.87
2018-07-28T10:46:50.183Z,11.87
2018-07-28T10:49:19.243Z,13.33
2018-07-28T10:51:48.105Z,14.20
2018-07-28T10:54:17.091Z,23.17
2018-07-28T10:56:46.058Z,13.73
2018-07-28T10:59:15.004Z,11.53
2018-07-28T11:01:43.782Z,11.20
2018-07-28T11:04:13.296Z,17.40
2018-07-28T11:06:42.420Z,14.90
2018-07-28T11:09:11.581Z,18.90
2018-07-28T11:11:40.355Z,12.30
2018-07-28T11:14:09.225Z,11.70
2018-07-28T11:16:38.086Z,12.07
2018-07-28T11:19:06.952Z,10.97
2018-07-28T11:21:35.856Z,10.83
2018-07-28T11:24:04.789Z,10.93
2018-07-28T11:26:33.693Z,9.97
2018-07-28T11:29:02.606Z,9.27
2018-07-28T11:31:48.604Z,10.40
2018-07-28T11:34:34.574Z,9.57
2018-07-28T11:38:24.183Z,10.03
2018-07-28T11:42:13.107Z,11.90
2018-07-28T11:44:57.650Z,10.40
2018-07-28T11:47:26.504Z,8.70
2018-07-28T11:49:55.501Z,9.20
2018-07-28T11:52:24.363Z,10.67
2018-07-28T11:54:53.207Z,9.03
2018-07-28T11:57:22.070Z,8.97
2018-07-28T11:59:51.067Z,10.13
2018-07-28T12:02:20.009Z,9.00
2018-07-28T12:04:48.880Z,9.13
2018-07-28T12:07:17.779Z,7.73
2018-07-28T12:09:46.723Z,10.07
2018-07-28T12:12:15.611Z,9.90
2018-07-28T12:14:44.467Z,8.90
2018-07-28T12:17:13.307Z,8.83
2018-07-28T12:19:42.181Z,8.80
2018-07-28T12:22:11.026Z,8.70
2018-07-28T12:24:39.844Z,9.53
2018-07-28T12:27:08.699Z,8.77
2018-07-28T12:29:37.595Z,9.53
2018-07-28T12:32:06.488Z,8.67
2018-07-28T12:34:35.315Z,8.60
2018-07-28T12:37:04.316Z,9.20
2018-07-28T12:39:33.258Z,9.97
2018-07-28T12:42:02.103Z,8.80
2018-07-28T12:44:30.850Z,8.90
2018-07-28T12:46:59.727Z,9.13
2018-07-28T12:49:28.671Z,9.20
2018-07-28T12:51:57.433Z,8.70
2018-07-28T12:54:26.253Z,8.67
2018-07-28T12:56:55.147Z,8.20
2018-07-28T12:59:24.056Z,9.40
2018-07-28T13:01:52.807Z,8.70
2018-07-28T13:04:21.610Z,8.77
2018-07-28T13:06:50.475Z,8.30
2018-07-28T13:09:19.418Z,8.57
2018-07-28T13:11:48.249Z,8.50
2018-07-28T13:14:17.198Z,9.53
2018-07-28T13:16:46.088Z,7.60
2018-07-28T13:19:15.021Z,8.47
2018-07-28T13:21:43.847Z,7.83
2018-07-28T13:24:12.671Z,7.80
2018-07-28T13:26:41.515Z,9.87
2018-07-28T13:29:10.415Z,8.87
2018-07-28T13:31:39.218Z,8.37
2018-07-28T13:34:08.081Z,9.40
2018-07-28T13:36:36.898Z,9.90
2018-07-28T13:39:07.730Z,9.73
2018-07-28T13:41:36.639Z,9.60
2018-07-28T13:44:05.867Z,9.43
2018-07-28T13:46:34.763Z,9.00
2018-07-28T13:49:03.948Z,9.20
2018-07-28T13:51:32.859Z,8.33
2018-07-28T13:54:01.687Z,10.00
2018-07-28T13:56:30.432Z,9.47
2018-07-28T13:58:59.710Z,14.87
2018-07-28T14:01:29.516Z,21.20
2018-07-28T14:03:58.706Z,10.20
2018-07-28T14:06:28.045Z,9.27
2018-07-28T14:08:57.204Z,10.93
2018-07-28T14:11:26.248Z,18.63
2018-07-28T14:13:55.170Z,16.10
2018-07-28T14:16:24.027Z,9.40
2018-07-28T14:18:53.007Z,9.50
2018-07-28T14:21:21.999Z,9.10
2018-07-28T14:23:51.407Z,8.53
2018-07-28T14:26:20.408Z,9.83
2018-07-28T14:28:49.394Z,9.07
2018-07-28T14:31:18.580Z,8.97
2018-07-28T14:33:47.476Z,9.33
2018-07-28T14:36:16.875Z,9.90
2018-07-28T14:38:45.871Z,8.50
2018-07-28T14:41:14.763Z,8.87
2018-07-28T14:43:44.136Z,8.17
2018-07-28T14:46:14.531Z,9.40
2018-07-28T14:48:43.699Z,9.03
2018-07-28T14:51:12.666Z,8.37
2018-07-28T14:53:41.922Z,8.90
2018-07-28T14:56:10.855Z,9.43
2018-07-28T14:58:40.038Z,8.90
2018-07-28T15:01:08.971Z,9.00
2018-07-28T15:03:37.799Z,7.90
2018-07-28T15:06:06.591Z,8.97
2018-07-28T15:08:35.310Z,11.30
2018-07-28T15:11:04.168Z,9.50
2018-07-28T15:13:33.035Z,8.50
2018-07-28T15:16:01.912Z,8.53
2018-07-28T15:18:30.758Z,8.87
2018-07-28T15:20:59.623Z,9.20
2018-07-28T15:23:28.628Z,9.80
2018-07-28T15:25:57.448Z,9.40
2018-07-28T15:28:26.287Z,8.77
2018-07-28T15:30:55.202Z,9.60
2018-07-28T15:33:23.934Z,8.90
2018-07-28T15:35:52.803Z,10.00
2018-07-28T15:38:21.646Z,9.50
2018-07-28T15:40:50.547Z,9.33
2018-07-28T15:43:19.278Z,8.27
2018-07-28T15:45:48.128Z,7.63
2018-07-28T15:48:16.971Z,8.13
2018-07-28T15:50:45.920Z,9.33
2018-07-28T15:53:15.116Z,8.90
2018-07-28T15:55:43.979Z,8.67
2018-07-28T15:58:12.826Z,8.83
2018-07-28T16:00:41.714Z,9.20
2018-07-28T16:03:10.571Z,7.67
2018-07-28T16:05:39.413Z,8.80
2018-07-28T16:08:08.262Z,9.20
2018-07-28T16:10:37.136Z,7.87
2018-07-28T16:13:06.208Z,7.73
2018-07-28T16:15:35.068Z,8.57
2018-07-28T16:18:04.008Z,8.20
2018-07-28T16:20:32.919Z,7.90
2018-07-28T16:23:01.760Z,8.17
2018-07-28T16:25:30.628Z,8.53
2018-07-28T16:27:59.488Z,8.93
2018-07-28T16:30:28.399Z,8.07
2018-07-28T16:32:57.281Z,8.63
2018-07-28T16:35:26.149Z,8.23
2018-07-28T16:37:55.015Z,8.40
2018-07-28T16:40:23.880Z,8.07
2018-07-28T16:42:52.751Z,7.77
2018-07-28T16:45:21.607Z,8.33
2018-07-28T16:47:50.499Z,9.13
2018-07-28T16:50:19.405Z,8.37
2018-07-28T16:52:48.243Z,8.60
2018-07-28T16:55:17.087Z,8.87
2018-07-28T16:57:45.907Z,8.70
2018-07-28T17:00:14.911Z,8.40
2018-07-28T17:02:43.770Z,7.70
2018-07-28T17:05:12.602Z,8.43
2018-07-28T17:07:41.393Z,9.10
2018-07-28T17:10:10.356Z,8.60
2018-07-28T17:12:39.480Z,8.43
2018-07-28T17:15:09.336Z,8.53
2018-07-28T17:17:38.212Z,7.97
2018-07-28T17:20:07.637Z,9.97
2018-07-28T17:22:36.597Z,8.37
2018-07-28T17:25:08.312Z,7.33
2018-07-28T17:27:37.159Z,7.90
2018-07-28T17:30:06.189Z,7.60
2018-07-28T17:32:35.020Z,7.80
2018-07-28T17:35:03.931Z,8.43
2018-07-28T17:37:32.767Z,8.07
2018-07-28T17:40:01.604Z,8.30
2018-07-28T17:42:30.452Z,8.30
2018-07-28T17:44:59.308Z,7.93
2018-07-28T17:47:28.171Z,8.43
2018-07-28T17:49:57.170Z,8.20
2018-07-28T17:52:26.027Z,8.50
2018-07-28T17:54:55.191Z,7.63
2018-07-28T17:57:24.058Z,7.60
2018-07-28T17:59:53.040Z,8.47
2018-07-28T18:02:21.904Z,9.17
2018-07-28T18:04:50.709Z,8.07
2018-07-28T18:07:19.767Z,8.70
2018-07-28T18:09:48.738Z,8.67
2018-07-28T18:12:17.639Z,9.00
2018-07-28T18:14:46.507Z,8.60
2018-07-28T18:17:15.352Z,8.60
2018-07-28T18:19:44.166Z,8.50
2018-07-28T18:22:12.885Z,7.70
2018-07-28T18:24:41.807Z,7.57
2018-07-28T18:27:10.704Z,7.13
2018-07-28T18:29:39.620Z,7.73
2018-07-28T18:32:08.520Z,8.00
2018-07-28T18:34:37.394Z,7.50
2018-07-28T18:37:06.307Z,6.93
2018-07-28T18:39:35.191Z,6.33
2018-07-28T18:42:04.027Z,7.77
2018-07-28T18:44:32.876Z,5.83
2018-07-28T18:47:01.745Z,6.80
2018-07-28T18:49:30.670Z,7.37
2018-07-28T18:51:59.504Z,7.80
2018-07-28T18:54:28.328Z,6.53
2018-07-28T18:56:57.343Z,7.07
2018-07-28T18:59:26.204Z,6.90
2018-07-28T19:01:55.955Z,6.53
2018-07-28T19:04:24.817Z,6.10
2018-07-28T19:06:53.660Z,5.70
2018-07-28T19:09:28.347Z,6.40
2018-07-28T19:11:57.237Z,5.77
2018-07-28T19:14:31.667Z,7.20
2018-07-28T19:17:00.535Z,6.70
2018-07-28T19:19:29.423Z,6.67
2018-07-28T19:21:58.326Z,7.57
2018-07-28T19:24:27.207Z,7.50
2018-07-28T19:26:56.080Z,7.13
2018-07-28T19:29:30.696Z,6.93
2018-07-28T19:31:59.547Z,7.00
2018-07-28T19:34:28.391Z,6.73
2018-07-28T19:37:02.872Z,7.83
2018-07-28T19:39:31.808Z,8.17
2018-07-28T19:42:06.309Z,8.20
2018-07-28T19:44:35.045Z,7.07
2018-07-28T19:47:03.940Z,7.90
2018-07-28T19:49:34.344Z,8.07
2018-07-28T19:52:03.207Z,7.73
2018-07-28T19:54:31.962Z,8.10
2018-07-28T19:57:00.808Z,7.70
2018-07-28T19:59:29.720Z,8.23
2018-07-28T20:01:58.633Z,8.00
2018-07-28T20:04:28.284Z,8.03
2018-07-28T20:06:57.212Z,9.17
2018-07-28T20:09:26.080Z,7.37
2018-07-28T20:11:55.484Z,7.97
2018-07-28T20:14:24.444Z,7.30
2018-07-28T20:16:54.255Z,8.40
2018-07-28T20:19:23.202Z,8.27
2018-07-28T20:21:52.023Z,8.10
2018-07-28T20:24:20.890Z,8.30
2018-07-28T20:26:49.744Z,9.20
2018-07-28T20:29:18.672Z,9.20
2018-07-28T20:31:47.508Z,9.27
2018-07-28T20:34:16.479Z,9.00
2018-07-28T20:36:45.308Z,9.53
2018-07-28T20:39:14.435Z,8.83
2018-07-28T20:41:43.339Z,9.30
2018-07-28T20:44:13.704Z,8.90
2018-07-28T20:46:42.991Z,9.00
2018-07-28T20:49:12.672Z,9.53
2018-07-28T20:51:41.751Z,9.80
2018-07-28T20:54:11.004Z,10.00
2018-07-28T20:56:40.575Z,9.40
2018-07-28T20:59:09.807Z,10.70
2018-07-28T21:01:38.853Z,10.13
2018-07-28T21:04:07.927Z,9.17
2018-07-28T21:06:36.947Z,9.07
2018-07-28T21:09:07.474Z,9.60
2018-07-28T21:11:36.843Z,8.40
2018-07-28T21:14:05.874Z,9.80
2018-07-28T21:16:34.841Z,9.50
2018-07-28T21:19:03.648Z,10.20
2018-07-28T21:21:32.589Z,8.50
2018-07-28T21:24:01.358Z,9.37
2018-07-28T21:26:30.184Z,9.80
2018-07-28T21:28:59.212Z,10.77
2018-07-28T21:31:28.039Z,9.10
2018-07-28T21:33:56.914Z,9.40
2018-07-28T21:36:25.754Z,9.10
2018-07-28T21:38:54.700Z,10.30
2018-07-28T21:41:24.096Z,9.10
2018-07-28T21:43:52.931Z,10.13
2018-07-28T21:46:21.784Z,9.80
2018-07-28T21:48:50.710Z,9.00
2018-07-28T21:51:19.563Z,8.30
2018-07-28T21:53:48.398Z,10.20
2018-07-28T21:56:21.767Z,9.13
2018-07-28T21:58:51.031Z,10.37
2018-07-28T22:01:19.979Z,9.33
2018-07-28T22:03:48.825Z,9.07
2018-07-28T22:06:17.663Z,9.60
2018-07-28T22:08:46.503Z,10.00
2018-07-28T22:11:15.392Z,9.93
2018-07-28T22:13:44.224Z,10.90
2018-07-28T22:16:13.179Z,9.67
2018-07-28T22:18:42.016Z,8.97
2018-07-28T22:21:11.436Z,11.43
2018-07-28T22:23:40.381Z,10.30
2018-07-28T22:26:09.259Z,10.20
2018-07-28T22:28:38.207Z,9.90
2018-07-28T22:31:07.111Z,9.40
2018-07-28T22:33:35.960Z,9.63
2018-07-28T22:36:04.870Z,10.17
2018-07-28T22:38:33.666Z,9.07
2018-07-28T22:41:02.619Z,9.63
2018-07-28T22:43:31.459Z,9.73
2018-07-28T22:46:00.294Z,11.27
2018-07-28T22:48:29.103Z,10.27
2018-07-28T22:50:58.029Z,9.50
2018-07-28T22:53:27.136Z,10.07
2018-07-28T22:55:55.974Z,10.07
2018-07-28T22:58:24.782Z,9.50
2018-07-28T23:00:53.659Z,9.60
2018-07-28T23:03:22.517Z,9.50
2018-07-28T23:05:51.389Z,10.30
2018-07-28T23:08:20.247Z,11.33
2018-07-28T23:10:49.208Z,10.03
2018-07-28T23:13:18.097Z,9.37
2018-07-28T23:15:47.159Z,9.37
2018-07-28T23:18:16.007Z,10.50
2018-07-28T23:20:44.907Z,9.47
2018-07-28T23:23:13.828Z,10.20
2018-07-28T23:25:42.698Z,10.10
2018-07-28T23:28:11.550Z,10.00
2018-07-28T23:30:40.454Z,10.10
2018-07-28T23:33:09.306Z,9.77
2018-07-28T23:35:38.139Z,10.07
2018-07-28T23:38:06.849Z,11.00
2018-07-28T23:40:35.788Z,10.10
2018-07-28T23:43:04.694Z,10.13
2018-07-28T23:45:33.530Z,10.40
2018-07-28T23:48:02.396Z,10.93
2018-07-28T23:50:31.307Z,9.93
2018-07-28T23:53:00.187Z,9.50
2018-07-28T23:55:29.152Z,10.50
2018-07-28T23:57:58.012Z,10.00
